createdAt,value
2022-12-25T00:03:34.836Z,15.38
2022-12-25T00:08:37.069Z,14.40
2022-12-25T00:13:38.570Z,13.60
2022-12-25T00:18:40.635Z,13.00
2022-12-25T00:23:42.101Z,13.35
2022-12-25T00:28:44.368Z,13.15
2022-12-25T00:33:46.640Z,13.02
2022-12-25T00:38:48.168Z,12.90
2022-12-25T00:43:49.616Z,13.60
2022-12-25T00:48:51.070Z,13.32
2022-12-25T00:53:52.623Z,12.77
2022-12-25T00:58:54.381Z,12.70
2022-12-25T01:03:55.981Z,12.10
2022-12-25T01:09:15.948Z,14.27
2022-12-25T01:14:17.438Z,13.35
2022-12-25T01:19:18.879Z,13.85
2022-12-25T01:24:20.346Z,12.35
2022-12-25T01:29:21.780Z,12.88
2022-12-25T01:34:23.209Z,12.73
2022-12-25T01:39:24.684Z,14.25
2022-12-25T01:44:35.377Z,14.38
2022-12-25T01:49:38.022Z,12.88
2022-12-25T01:54:41.620Z,13.30
2022-12-25T01:59:43.526Z,12.18
2022-12-25T02:04:54.015Z,13.40
2022-12-25T02:09:55.480Z,12.68
2022-12-25T02:15:04.977Z,13.30
2022-12-25T02:20:22.417Z,13.20
2022-12-25T02:25:35.214Z,14.27
2022-12-25T02:30:42.598Z,14.52
2022-12-25T02:35:46.148Z,16.10
2022-12-25T02:40:51.295Z,15.63
2022-12-25T02:46:11.134Z,15.38
2022-12-25T02:51:32.444Z,16.80
2022-12-25T02:56:53.501Z,15.73
2022-12-25T03:02:14.532Z,17.02
2022-12-25T03:07:21.001Z,15.55
2022-12-25T03:12:25.348Z,14.45
2022-12-25T03:17:26.934Z,14.68
2022-12-25T03:22:48.638Z,15.23
2022-12-25T03:27:50.941Z,14.35
2022-12-25T03:32:58.859Z,15.18
2022-12-25T03:38:34.295Z,14.10
2022-12-25T03:44:10.760Z,15.02
2022-12-25T03:49:35.572Z,15.25
2022-12-25T03:54:58.703Z,15.23
2022-12-25T04:00:18.782Z,15.52
2022-12-25T04:05:38.544Z,16.63
2022-12-25T04:10:58.515Z,15.10
2022-12-25T04:16:18.455Z,16.60
2022-12-25T04:21:38.726Z,16.70
2022-12-25T04:32:18.692Z,16.60
2022-12-25T04:37:20.118Z,16.63
2022-12-25T04:42:21.566Z,18.13
2022-12-25T04:47:23.010Z,17.52
2022-12-25T04:52:24.672Z,17.17
2022-12-25T04:57:26.145Z,17.77
2022-12-25T05:02:27.768Z,17.30
2022-12-25T05:07:29.362Z,17.63
2022-12-25T05:12:30.772Z,16.95
2022-12-25T05:17:32.355Z,18.65
2022-12-25T05:22:33.758Z,17.73
2022-12-25T05:27:35.198Z,18.38
2022-12-25T05:32:36.633Z,17.67
2022-12-25T05:37:38.086Z,19.35
2022-12-25T05:42:39.726Z,18.23
2022-12-25T05:47:41.278Z,19.00
2022-12-25T05:52:42.714Z,18.70
2022-12-25T05:57:44.331Z,18.75
2022-12-25T06:02:45.873Z,18.00
2022-12-25T06:07:47.426Z,18.42
2022-12-25T06:12:48.889Z,18.40
2022-12-25T06:17:50.343Z,18.65
2022-12-25T06:22:51.749Z,18.80
2022-12-25T06:27:53.302Z,17.98
2022-12-25T06:32:54.823Z,17.50
2022-12-25T06:37:56.725Z,17.50
2022-12-25T06:42:58.176Z,16.63
2022-12-25T06:47:59.648Z,16.58
2022-12-25T06:53:01.071Z,16.52
2022-12-25T06:58:02.497Z,17.10
2022-12-25T07:03:04.649Z,17.42
2022-12-25T07:08:06.159Z,16.10
2022-12-25T07:13:07.589Z,15.98
2022-12-25T07:18:08.980Z,14.02
2022-12-25T07:23:10.393Z,14.05
2022-12-25T07:28:11.795Z,14.93
2022-12-25T07:33:13.267Z,13.77
2022-12-25T07:38:14.723Z,11.25
2022-12-25T07:43:16.287Z,10.35
2022-12-25T07:48:17.770Z,11.02
2022-12-25T07:53:19.241Z,10.07
2022-12-25T07:58:23.433Z,10.18
2022-12-25T08:03:25.355Z,10.77
2022-12-25T08:08:27.007Z,11.02
2022-12-25T08:13:32.043Z,9.68
2022-12-25T08:18:33.766Z,11.23
2022-12-25T08:23:36.566Z,12.65
2022-12-25T08:28:38.162Z,12.73
2022-12-25T08:33:39.717Z,13.88
2022-12-25T08:38:41.636Z,11.32
2022-12-25T08:43:43.296Z,13.30
2022-12-25T08:48:45.882Z,12.45
2022-12-25T08:53:48.451Z,11.60
2022-12-25T08:58:49.942Z,11.88
2022-12-25T09:03:51.508Z,10.20
2022-12-25T09:09:11.685Z,9.70
2022-12-25T09:14:14.336Z,10.00
2022-12-25T09:19:15.780Z,10.13
2022-12-25T09:24:17.257Z,9.98
2022-12-25T09:29:18.761Z,9.40
2022-12-25T09:34:20.175Z,9.65
2022-12-25T09:39:21.654Z,10.68
2022-12-25T09:44:28.446Z,9.13
2022-12-25T09:49:43.156Z,9.38
2022-12-25T09:55:05.393Z,9.32
2022-12-25T10:00:14.747Z,9.82
2022-12-25T10:05:27.163Z,8.07
2022-12-25T10:10:31.845Z,8.75
2022-12-25T10:15:52.083Z,10.25
2022-12-25T10:25:55.702Z,8.63
2022-12-25T10:30:59.726Z,8.57
2022-12-25T10:36:01.768Z,8.35
2022-12-25T10:41:21.692Z,8.23
2022-12-25T10:46:24.955Z,8.60
2022-12-25T10:51:31.302Z,9.43
2022-12-25T10:56:32.732Z,9.57
2022-12-25T11:01:34.340Z,8.38
2022-12-25T11:06:35.963Z,8.60
2022-12-25T11:11:38.253Z,8.55
2022-12-25T11:16:40.845Z,8.07
2022-12-25T11:21:49.946Z,8.40
2022-12-25T11:26:52.417Z,8.57
2022-12-25T11:31:55.577Z,8.90
2022-12-25T11:36:58.355Z,8.63
2022-12-25T11:42:07.519Z,8.35
2022-12-25T11:47:23.839Z,8.60
2022-12-25T11:52:25.826Z,7.55
2022-12-25T11:57:29.576Z,8.20
2022-12-25T12:02:44.592Z,8.45
2022-12-25T12:07:52.579Z,8.68
2022-12-25T12:12:54.065Z,8.55
2022-12-25T12:17:55.958Z,8.10
2022-12-25T12:22:59.432Z,8.52
2022-12-25T12:28:05.390Z,7.63
2022-12-25T12:33:07.905Z,7.60
2022-12-25T12:38:09.320Z,7.13
2022-12-25T12:43:27.462Z,7.85
2022-12-25T12:48:29.463Z,7.53
2022-12-25T12:53:32.110Z,7.75
2022-12-25T12:58:37.959Z,7.05
2022-12-25T13:03:43.952Z,7.13
2022-12-25T13:09:03.858Z,7.25
2022-12-25T13:14:05.495Z,7.65
2022-12-25T13:19:21.946Z,8.00
2022-12-25T13:24:24.673Z,7.20
2022-12-25T13:29:33.940Z,6.97
2022-12-25T13:34:42.190Z,6.68
2022-12-25T13:39:56.831Z,6.18
2022-12-25T13:45:03.347Z,6.43
2022-12-25T13:50:13.965Z,6.28
2022-12-25T13:55:19.892Z,6.55
2022-12-25T14:00:23.077Z,6.90
2022-12-25T14:05:26.299Z,6.78
2022-12-25T14:10:30.304Z,8.77
2022-12-25T14:15:33.525Z,6.82
2022-12-25T14:20:37.277Z,8.48
2022-12-25T14:25:42.865Z,8.35
2022-12-25T14:30:44.631Z,8.38
2022-12-25T14:35:47.132Z,9.57
2022-12-25T14:40:57.760Z,9.30
2022-12-25T14:46:00.762Z,8.88
2022-12-25T14:51:04.069Z,10.32
2022-12-25T14:56:06.727Z,10.10
2022-12-25T15:01:18.584Z,10.15
2022-12-25T15:06:21.787Z,9.20
2022-12-25T15:11:23.337Z,10.85
2022-12-25T15:16:25.787Z,10.60
2022-12-25T15:21:31.423Z,11.10
2022-12-25T15:26:32.909Z,11.05
2022-12-25T15:36:54.719Z,11.05
2022-12-25T15:42:11.162Z,11.13
2022-12-25T15:47:13.149Z,11.27
2022-12-25T15:52:15.811Z,11.60
2022-12-25T15:57:21.322Z,10.40
2022-12-25T16:02:22.889Z,11.80
2022-12-25T16:07:25.101Z,11.57
2022-12-25T16:12:26.685Z,10.48
2022-12-25T16:17:28.147Z,10.95
2022-12-25T16:22:30.029Z,10.77
2022-12-25T16:27:31.478Z,9.85
2022-12-25T16:32:33.297Z,10.85
2022-12-25T16:37:35.096Z,10.88
2022-12-25T16:42:37.036Z,10.93
2022-12-25T16:47:38.468Z,10.52
2022-12-25T16:52:39.865Z,11.32
2022-12-25T16:57:41.349Z,10.18
2022-12-25T17:02:42.911Z,12.23
2022-12-25T17:07:45.204Z,13.05
2022-12-25T17:12:46.904Z,11.75
2022-12-25T17:17:48.346Z,10.10
2022-12-25T17:22:50.056Z,10.30
2022-12-25T17:27:51.579Z,9.52
2022-12-25T17:32:53.143Z,9.52
2022-12-25T17:37:55.437Z,9.15
2022-12-25T17:43:20.526Z,10.57
2022-12-25T17:48:22.802Z,10.65
2022-12-25T17:53:42.725Z,10.25
2022-12-25T17:58:44.524Z,13.65
2022-12-25T18:03:46.238Z,15.63
2022-12-25T18:08:48.084Z,12.55
2022-12-25T18:13:51.970Z,11.27
2022-12-25T18:18:53.519Z,9.98
2022-12-25T18:23:55.033Z,11.88
2022-12-25T18:28:57.517Z,15.10
2022-12-25T18:33:59.927Z,12.68
2022-12-25T18:39:01.464Z,12.27
2022-12-25T18:44:02.857Z,11.73
2022-12-25T18:49:04.333Z,12.93
2022-12-25T18:54:05.761Z,12.32
2022-12-25T18:59:07.207Z,12.23
2022-12-25T19:04:12.615Z,13.23
2022-12-25T19:09:14.193Z,13.15
2022-12-25T19:14:15.740Z,13.15
2022-12-25T19:19:17.362Z,15.32
2022-12-25T19:24:18.784Z,15.88
2022-12-25T19:29:20.194Z,14.20
2022-12-25T19:34:21.680Z,17.10
2022-12-25T19:39:23.188Z,18.60
2022-12-25T19:44:24.775Z,18.10
2022-12-25T19:49:26.302Z,19.25
2022-12-25T19:54:29.485Z,18.23
2022-12-25T19:59:31.018Z,21.67
2022-12-25T20:04:32.485Z,26.20
2022-12-25T20:09:34.094Z,24.08
2022-12-25T20:14:35.643Z,21.42
2022-12-25T20:19:37.079Z,19.42
2022-12-25T20:24:38.538Z,23.92
2022-12-25T20:29:39.956Z,29.40
2022-12-25T20:34:41.375Z,23.08
2022-12-25T20:39:42.851Z,20.75
2022-12-25T20:44:44.353Z,22.20
2022-12-25T20:49:46.864Z,24.63
2022-12-25T20:54:49.278Z,25.02
2022-12-25T20:59:51.737Z,22.88
2022-12-25T21:04:54.415Z,22.33
2022-12-25T21:09:56.047Z,23.63
2022-12-25T21:14:57.560Z,22.20
2022-12-25T21:19:59.063Z,22.30
2022-12-25T21:25:00.574Z,19.85
2022-12-25T21:30:17.650Z,20.48
2022-12-25T21:35:19.143Z,18.90
2022-12-25T21:40:20.592Z,18.48
2022-12-25T21:45:22.069Z,19.63
2022-12-25T21:50:42.331Z,18.90
2022-12-25T22:00:46.310Z,21.75
2022-12-25T22:06:06.152Z,19.45
2022-12-25T22:17:11.722Z,21.13
2022-12-25T22:22:13.492Z,19.10
2022-12-25T22:27:15.055Z,19.42
2022-12-25T22:32:16.722Z,19.10
2022-12-25T22:37:18.558Z,17.40
2022-12-25T22:42:20.547Z,19.13
2022-12-25T22:47:22.192Z,18.80
2022-12-25T22:52:23.886Z,17.45
2022-12-25T22:57:25.339Z,18.27
2022-12-25T23:02:27.051Z,17.05
2022-12-25T23:07:28.760Z,16.30
2022-12-25T23:12:48.641Z,14.70
2022-12-25T23:18:08.903Z,16.55
2022-12-25T23:28:49.011Z,15.43
2022-12-25T23:38:51.826Z,14.27
2022-12-25T23:43:53.333Z,16.08
2022-12-25T23:48:54.768Z,15.80
2022-12-25T23:53:56.231Z,15.07
2022-12-25T23:58:57.641Z,14.27
